Time,TemperatureF,DewpointF,PressureIn,WindDirection,WindDirectionDegrees,WindSpeedMPH,WindSpeedGustMPH,Humidity,HourlyPrecipIn,Conditions,Clouds,dailyrainin,SoftwareType,DateUTC
2013-01-04 00:01:00,27.6,19.1,30.03,WSW,258,0.0,1.0,70,0.00,,OVC044,0.00,VWS V14.01,2013-01-04 05:01:00,
2013-01-04 00:02:00,27.6,19.1,30.03,WSW,258,0.0,0.0,70,0.00,,OVC044,0.00,VWS V14.01,2013-01-04 05:02:00,
2013-01-04 00:07:00,27.8,19.3,30.02,WSW,258,0.0,0.0,70,0.00,,OVC044,0.00,VWS V14.01,2013-01-04 05:07:00,
2013-01-04 00:12:00,27.8,19.3,30.02,WSW,258,0.0,0.0,70,0.00,,OVC044,0.00,VWS V14.01,2013-01-04 05:12:00,
2013-01-04 00:17:00,27.8,19.3,30.02,WSW,258,0.0,0.0,70,0.00,,OVC044,0.00,VWS V14.01,2013-01-04 05:17:00,
2013-01-04 00:22:00,27.8,19.3,30.02,WSW,258,0.0,0.0,70,0.00,,OVC044,0.00,VWS V14.01,2013-01-04 05:22:00,
2013-01-04 00:27:00,27.6,18.8,30.02,WSW,258,0.0,0.0,69,0.00,,OVC044,0.00,VWS V14.01,2013-01-04 05:27:00,
2013-01-04 00:32:00,27.5,19.0,30.02,WSW,258,0.0,0.0,70,0.00,,BKN042,0.00,VWS V14.01,2013-01-04 05:32:00,
2013-01-04 00:37:00,27.3,18.8,30.01,WSW,258,0.0,0.0,70,0.00,,BKN042,0.00,VWS V14.01,2013-01-04 05:37:00,
2013-01-04 00:42:00,26.9,18.4,30.01,WSW,258,0.0,0.0,70,0.00,,BKN042,0.00,VWS V14.01,2013-01-04 05:42:00,
2013-01-04 00:47:00,26.4,18.3,30.01,WSW,258,0.0,0.0,71,0.00,,BKN042,0.00,VWS V14.01,2013-01-04 05:47:00,
2013-01-04 00:52:00,26.0,18.2,30.01,WSW,258,0.0,0.0,72,0.00,,FEW042,0.00,VWS V14.01,2013-01-04 05:52:00,
2013-01-04 00:57:00,25.6,17.8,30.01,WSW,258,0.0,0.0,72,0.00,,FEW042,0.00,VWS V14.01,2013-01-04 05:57:00,
2013-01-04 01:02:00,25.3,17.9,30.01,WSW,258,0.0,0.0,73,0.00,,FEW042,0.00,VWS V14.01,2013-01-04 06:02:00,
2013-01-04 01:07:00,25.0,17.6,30.01,WSW,258,0.0,0.0,73,0.00,,FEW042,0.00,VWS V14.01,2013-01-04 06:07:00,
2013-01-04 01:12:00,24.7,17.6,30.01,WSW,258,0.0,0.0,74,0.00,,FEW042,0.00,VWS V14.01,2013-01-04 06:12:00,
2013-01-04 01:17:00,24.4,17.3,30.01,WSW,258,0.0,0.0,74,0.00,,FEW042,0.00,VWS V14.01,2013-01-04 06:17:00,
2013-01-04 01:22:00,24.2,17.4,30.01,WSW,258,0.0,0.0,75,0.00,,FEW042,0.00,VWS V14.01,2013-01-04 06:22:00,
2013-01-04 01:27:00,23.9,17.5,30.01,WSW,258,0.0,0.0,76,0.00,,FEW042,0.00,VWS V14.01,2013-01-04 06:27:00,
2013-01-04 01:32:00,23.8,17.4,30.01,WSW,258,0.0,0.0,76,0.00,,CLR,0.00,VWS V14.01,2013-01-04 06:32:00,
2013-01-04 01:37:00,23.6,17.5,30.01,WSW,258,0.0,0.0,77,0.00,,CLR,0.00,VWS V14.01,2013-01-04 06:37:00,
2013-01-04 01:42:00,23.8,17.7,30.01,WSW,258,0.0,0.0,77,0.00,,CLR,0.00,VWS V14.01,2013-01-04 06:42:00,
2013-01-04 01:47:00,23.9,17.8,30.01,WSW,258,0.0,0.0,77,0.00,,CLR,0.00,VWS V14.01,2013-01-04 06:47:00,
2013-01-04 01:52:00,23.8,17.7,30.01,WSW,258,0.0,0.0,77,0.00,,CLR,0.00,VWS V14.01,2013-01-04 06:52:00,
2013-01-04 01:57:00,23.8,17.7,30.01,WSW,258,0.0,0.0,77,0.00,,CLR,0.00,VWS V14.01,2013-01-04 06:57:00,
2013-01-04 02:02:00,23.8,17.7,30.01,WSW,258,0.0,0.0,77,0.00,,CLR,0.00,VWS V14.01,2013-01-04 07:02:00,
2013-01-04 02:07:00,23.6,17.5,30.02,WSW,258,0.0,0.0,77,0.00,,CLR,0.00,VWS V14.01,2013-01-04 07:07:00,
2013-01-04 02:12:00,23.5,17.4,30.02,WSW,258,0.0,0.0,77,0.00,,CLR,0.00,VWS V14.01,2013-01-04 07:12:00,
2013-01-04 02:17:00,23.3,17.2,30.02,WSW,258,0.0,0.0,77,0.00,,CLR,0.00,VWS V14.01,2013-01-04 07:17:00,
2013-01-04 02:22:00,23.3,17.5,30.02,WSW,258,0.0,0.0,78,0.00,,CLR,0.00,VWS V14.01,2013-01-04 07:22:00,
2013-01-04 02:27:00,23.5,17.7,30.02,WSW,258,0.0,0.0,78,0.00,,CLR,0.00,VWS V14.01,2013-01-04 07:27:00,
2013-01-04 02:32:00,23.6,17.8,30.02,WSW,258,0.0,0.0,78,0.00,,OVC048,0.00,VWS V14.01,2013-01-04 07:32:00,
2013-01-04 02:37:00,23.6,18.1,30.02,WSW,258,0.0,0.0,79,0.00,,OVC048,0.00,VWS V14.01,2013-01-04 07:37:00,
2013-01-04 02:42:00,24.2,18.9,30.02,WSW,258,0.0,0.0,80,0.00,,OVC048,0.00,VWS V14.01,2013-01-04 07:42:00,
2013-01-04 02:47:00,24.8,19.2,30.02,WSW,258,0.0,0.0,79,0.00,,OVC048,0.00,VWS V14.01,2013-01-04 07:47:00,
2013-01-04 02:52:00,25.1,19.5,30.02,WSW,258,0.0,0.0,79,0.00,,OVC046,0.00,VWS V14.01,2013-01-04 07:52:00,
2013-01-04 02:57:00,25.3,19.7,30.02,WSW,258,0.0,0.0,79,0.00,,OVC046,0.00,VWS V14.01,2013-01-04 07:57:00,
2013-01-04 03:02:00,25.6,19.7,30.02,WSW,258,0.0,0.0,78,0.00,,OVC046,0.00,VWS V14.01,2013-01-04 08:02:00,
2013-01-04 03:07:00,25.7,19.5,30.02,WSW,258,0.0,0.0,77,0.00,,OVC046,0.00,VWS V14.01,2013-01-04 08:07:00,
2013-01-04 03:12:00,25.8,19.6,30.02,WSW,258,0.0,0.0,77,0.00,,OVC046,0.00,VWS V14.01,2013-01-04 08:12:00,
2013-01-04 03:17:00,26.0,19.5,30.02,WSW,258,0.0,0.0,76,0.00,,OVC046,0.00,VWS V14.01,2013-01-04 08:17:00,
2013-01-04 03:22:00,26.1,19.6,30.02,WSW,258,0.0,0.0,76,0.00,,OVC046,0.00,VWS V14.01,2013-01-04 08:22:00,
2013-01-04 03:27:00,26.4,19.9,30.02,WSW,258,0.0,0.0,76,0.00,,OVC046,0.00,VWS V14.01,2013-01-04 08:27:00,
2013-01-04 03:32:00,26.6,20.1,30.02,WSW,258,0.0,0.0,76,0.00,,OVC046,0.00,VWS V14.01,2013-01-04 08:32:00,
2013-01-04 03:37:00,26.9,20.0,30.02,WSW,258,0.0,0.0,75,0.00,,OVC046,0.00,VWS V14.01,2013-01-04 08:37:00,
2013-01-04 03:42:00,27.0,20.1,30.02,WSW,258,0.0,0.0,75,0.00,,OVC046,0.00,VWS V14.01,2013-01-04 08:42:00,
2013-01-04 03:47:00,27.2,20.3,30.02,WSW,257,2.0,2.0,75,0.00,,OVC046,0.00,VWS V14.01,2013-01-04 08:47:00,
2013-01-04 03:52:00,27.3,20.1,30.02,WSW,257,0.0,0.0,74,0.00,,OVC046,0.00,VWS V14.01,2013-01-04 08:52:00,
2013-01-04 03:57:00,27.5,20.0,30.02,West,280,2.0,2.0,73,0.00,,OVC046,0.00,VWS V14.01,2013-01-04 08:57:00,
2013-01-04 04:02:00,27.8,20.3,30.02,WSW,243,0.0,1.0,73,0.00,,OVC046,0.00,VWS V14.01,2013-01-04 09:02:00,
2013-01-04 04:07:00,28.4,20.9,30.02,West,279,4.0,4.0,73,0.00,,OVC046,0.00,VWS V14.01,2013-01-04 09:07:00,
2013-01-04 04:12:00,28.8,20.6,30.02,WSW,252,0.0,0.0,71,0.00,,OVC046,0.00,VWS V14.01,2013-01-04 09:12:00,
2013-01-04 04:17:00,29.3,20.7,30.02,WSW,251,0.0,0.0,70,0.00,,OVC046,0.00,VWS V14.01,2013-01-04 09:17:00,
2013-01-04 04:22:00,29.5,20.6,30.02,WSW,251,0.0,0.0,69,0.00,,OVC046,0.00,VWS V14.01,2013-01-04 09:22:00,
2013-01-04 04:27:00,29.7,20.8,30.02,WSW,252,0.0,0.0,69,0.00,,OVC046,0.00,VWS V14.01,2013-01-04 09:27:00,
2013-01-04 04:32:00,30.0,20.7,30.02,West,260,0.0,0.0,68,0.00,,OVC046,0.00,VWS V14.01,2013-01-04 09:32:00,
2013-01-04 04:37:00,30.0,20.7,30.02,West,260,0.0,0.0,68,0.00,,OVC046,0.00,VWS V14.01,2013-01-04 09:37:00,
2013-01-04 04:42:00,30.0,20.7,30.02,WSW,258,0.0,1.0,68,0.00,,OVC046,0.00,VWS V14.01,2013-01-04 09:42:00,
2013-01-04 04:47:00,30.3,21.0,30.02,WSW,246,0.0,2.0,68,0.00,,OVC046,0.00,VWS V14.01,2013-01-04 09:47:00,
2013-01-04 04:52:00,30.6,21.3,30.02,WNW,294,0.0,2.0,68,0.00,,OVC046,0.00,VWS V14.01,2013-01-04 09:52:00,
2013-01-04 04:57:00,31.0,21.3,30.02,West,276,0.0,1.0,67,0.00,,OVC046,0.00,VWS V14.01,2013-01-04 09:57:00,
2013-01-04 05:02:00,31.5,21.1,30.02,West,265,2.0,6.0,65,0.00,,OVC046,0.00,VWS V14.01,2013-01-04 10:02:00,
2013-01-04 05:07:00,31.8,21.0,30.02,WSW,250,1.0,4.0,64,0.00,,OVC046,0.00,VWS V14.01,2013-01-04 10:07:00,
2013-01-04 05:12:00,31.9,20.8,30.02,West,268,4.0,6.0,63,0.00,,OVC046,0.00,VWS V14.01,2013-01-04 10:12:00,
2013-01-04 05:17:00,32.1,20.9,30.02,WSW,254,4.0,6.0,63,0.00,,OVC046,0.00,VWS V14.01,2013-01-04 10:17:00,
2013-01-04 05:22:00,32.4,20.9,30.02,WSW,255,6.0,6.0,62,0.00,,OVC046,0.00,VWS V14.01,2013-01-04 10:22:00,
2013-01-04 05:27:00,32.4,20.9,30.02,WSW,255,4.0,5.0,62,0.00,,OVC046,0.00,VWS V14.01,2013-01-04 10:27:00,
2013-01-04 05:32:00,32.4,20.9,30.02,SW,231,6.0,7.0,62,0.00,,OVC048,0.00,VWS V14.01,2013-01-04 10:32:00,
2013-01-04 05:37:00,32.2,20.7,30.02,West,266,0.0,2.0,62,0.00,,OVC048,0.00,VWS V14.01,2013-01-04 10:37:00,
2013-01-04 05:42:00,32.1,20.6,30.02,NW,306,2.0,6.0,62,0.00,,OVC048,0.00,VWS V14.01,2013-01-04 10:42:00,
2013-01-04 05:47:00,31.9,20.4,30.02,SW,233,11.0,11.0,62,0.00,,OVC048,0.00,VWS V14.01,2013-01-04 10:47:00,
2013-01-04 05:52:00,32.1,20.6,30.02,WSW,241,6.0,8.0,62,0.00,,OVC048,0.00,VWS V14.01,2013-01-04 10:52:00,
2013-01-04 05:57:00,32.1,20.6,30.02,WSW,248,11.0,11.0,62,0.00,,OVC048,0.00,VWS V14.01,2013-01-04 10:57:00,
2013-01-04 06:02:00,31.9,20.8,30.02,West,262,5.0,8.0,63,0.00,,OVC048,0.00,VWS V14.01,2013-01-04 11:02:00,
2013-01-04 06:07:00,31.9,20.8,30.02,WSW,242,7.0,12.0,63,0.00,,OVC048,0.00,VWS V14.01,2013-01-04 11:07:00,
2013-01-04 06:12:00,32.2,21.0,30.02,WSW,251,6.0,16.0,63,0.00,,OVC048,0.00,VWS V14.01,2013-01-04 11:12:00,
2013-01-04 06:17:00,32.5,20.9,30.02,West,262,9.0,11.0,62,0.00,,OVC048,0.00,VWS V14.01,2013-01-04 11:17:00,
2013-01-04 06:22:00,32.7,21.1,30.02,West,279,10.0,12.0,62,0.00,,OVC048,0.00,VWS V14.01,2013-01-04 11:22:00,
2013-01-04 06:27:00,32.7,21.1,30.02,WNW,295,4.0,7.0,62,0.00,,OVC048,0.00,VWS V14.01,2013-01-04 11:27:00,
2013-01-04 06:32:00,32.5,21.3,30.02,West,278,4.0,8.0,63,0.00,,OVC038,0.00,VWS V14.01,2013-01-04 11:32:00,
2013-01-04 06:37:00,32.5,21.3,30.02,West,269,4.0,9.0,63,0.00,,OVC038,0.00,VWS V14.01,2013-01-04 11:37:00,
2013-01-04 06:42:00,32.7,21.1,30.02,West,264,7.0,7.0,62,0.00,,OVC038,0.00,VWS V14.01,2013-01-04 11:42:00,
2013-01-04 06:47:00,32.5,20.9,30.02,WSW,255,3.0,7.0,62,0.00,,OVC038,0.00,VWS V14.01,2013-01-04 11:47:00,
2013-01-04 06:52:00,32.5,20.9,30.02,WSW,250,6.0,8.0,62,0.00,,OVC038,0.00,VWS V14.01,2013-01-04 11:52:00,
2013-01-04 06:57:00,32.5,20.9,30.02,WSW,255,5.0,7.0,62,0.00,,OVC038,0.00,VWS V14.01,2013-01-04 11:57:00,
2013-01-04 07:02:00,32.5,20.9,30.02,West,270,7.0,10.0,62,0.00,,OVC038,0.00,VWS V14.01,2013-01-04 12:02:00,
2013-01-04 07:07:00,32.5,20.9,30.02,WSW,255,4.0,7.0,62,0.00,,OVC038,0.00,VWS V14.01,2013-01-04 12:07:00,
2013-01-04 07:12:00,32.5,20.6,30.02,WSW,251,1.0,9.0,61,0.00,,OVC038,0.00,VWS V14.01,2013-01-04 12:12:00,
2013-01-04 07:18:00,32.5,20.9,30.02,West,266,4.0,6.0,62,0.00,,OVC038,0.00,VWS V14.01,2013-01-04 12:18:00,
2013-01-04 07:23:00,32.4,20.9,30.02,SW,235,8.0,8.0,62,0.00,,OVC038,0.00,VWS V14.01,2013-01-04 12:23:00,
2013-01-04 07:28:00,32.4,20.9,30.02,West,266,6.0,10.0,62,0.00,,OVC038,0.00,VWS V14.01,2013-01-04 12:28:00,
2013-01-04 07:33:00,32.4,20.9,30.02,WNW,297,5.0,9.0,62,0.00,,OVC038,0.00,VWS V14.01,2013-01-04 12:33:00,
2013-01-04 07:38:00,32.5,20.9,30.02,WSW,254,6.0,8.0,62,0.00,,OVC038,0.00,VWS V14.01,2013-01-04 12:38:00,
2013-01-04 07:43:00,32.4,20.9,30.02,WSW,257,9.0,9.0,62,0.00,,OVC038,0.00,VWS V14.01,2013-01-04 12:43:00,
2013-01-04 07:48:00,32.4,20.9,30.02,WSW,254,4.0,7.0,62,0.00,,OVC038,0.00,VWS V14.01,2013-01-04 12:48:00,
2013-01-04 07:53:00,32.4,20.9,30.02,WNW,291,8.0,13.0,62,0.00,,OVC038,0.00,VWS V14.01,2013-01-04 12:53:00,
2013-01-04 07:58:00,32.5,20.6,30.02,WSW,252,7.0,9.0,61,0.00,,OVC038,0.00,VWS V14.01,2013-01-04 12:58:00,
2013-01-04 08:03:00,32.5,20.6,30.02,West,274,4.0,7.0,61,0.00,,OVC038,0.00,VWS V14.01,2013-01-04 13:03:00,
2013-01-04 08:08:00,32.5,20.9,30.02,WSW,246,6.0,9.0,62,0.00,,OVC038,0.00,VWS V14.01,2013-01-04 13:08:00,
2013-01-04 08:13:00,32.5,20.9,30.02,West,269,5.0,7.0,62,0.00,,OVC036,0.00,VWS V14.01,2013-01-04 13:13:00,
2013-01-04 08:18:00,32.4,20.9,30.02,WSW,255,6.0,10.0,62,0.00,,OVC036,0.00,VWS V14.01,2013-01-04 13:18:00,
2013-01-04 08:23:00,32.5,21.3,30.02,WNW,293,6.0,9.0,63,0.00,,OVC036,0.00,VWS V14.01,2013-01-04 13:23:00,
2013-01-04 08:28:00,32.5,20.9,30.02,SW,232,6.0,9.0,62,0.00,,OVC036,0.00,VWS V14.01,2013-01-04 13:28:00,
2013-01-04 08:33:00,32.5,20.9,30.02,WNW,285,1.0,10.0,62,0.00,,OVC036,0.00,VWS V14.01,2013-01-04 13:33:00,
2013-01-04 08:38:00,32.5,20.9,30.02,WSW,238,5.0,9.0,62,0.00,,OVC036,0.00,VWS V14.01,2013-01-04 13:38:00,
2013-01-04 08:43:00,32.5,20.9,30.02,West,268,2.0,6.0,62,0.00,,OVC036,0.00,VWS V14.01,2013-01-04 13:43:00,
2013-01-04 08:48:00,32.7,21.1,30.02,WNW,283,4.0,12.0,62,0.00,,OVC036,0.00,VWS V14.01,2013-01-04 13:48:00,
2013-01-04 08:53:00,32.7,21.1,30.03,WNW,283,5.0,8.0,62,0.00,,OVC034,0.00,VWS V14.01,2013-01-04 13:53:00,
2013-01-04 08:58:00,32.7,21.1,30.03,West,260,8.0,8.0,62,0.00,,OVC034,0.00,VWS V14.01,2013-01-04 13:58:00,
2013-01-04 09:03:00,32.8,21.2,30.03,WSW,242,7.0,8.0,62,0.00,,OVC034,0.00,VWS V14.01,2013-01-04 14:03:00,
2013-01-04 09:08:00,32.8,21.2,30.04,WNW,285,8.0,12.0,62,0.00,,OVC034,0.00,VWS V14.01,2013-01-04 14:08:00,
2013-01-04 09:13:00,32.8,20.9,30.04,WSW,256,7.0,12.0,61,0.00,,OVC034,0.00,VWS V14.01,2013-01-04 14:13:00,
2013-01-04 09:18:00,32.8,20.9,30.04,NW,307,4.0,10.0,61,0.00,,OVC034,0.00,VWS V14.01,2013-01-04 14:18:00,
2013-01-04 09:23:00,32.9,21.3,30.04,NW,312,5.0,9.0,62,0.00,,OVC034,0.00,VWS V14.01,2013-01-04 14:23:00,
2013-01-04 09:28:00,32.9,20.9,30.04,West,278,2.0,16.0,61,0.00,,OVC034,0.00,VWS V14.01,2013-01-04 14:28:00,
2013-01-04 09:33:00,33.1,21.1,30.04,WNW,300,8.0,11.0,61,0.00,,OVC036,0.00,VWS V14.01,2013-01-04 14:33:00,
2013-01-04 09:38:00,33.1,20.7,30.04,West,271,6.0,15.0,60,0.00,,OVC036,0.00,VWS V14.01,2013-01-04 14:38:00,
2013-01-04 09:43:00,33.1,20.7,30.04,West,265,12.0,12.0,60,0.00,,OVC036,0.00,VWS V14.01,2013-01-04 14:43:00,
2013-01-04 09:48:00,33.1,20.7,30.04,WNW,290,6.0,11.0,60,0.00,,OVC036,0.00,VWS V14.01,2013-01-04 14:48:00,
2013-01-04 09:53:00,33.1,20.7,30.04,West,278,6.0,11.0,60,0.00,,OVC037,0.00,VWS V14.01,2013-01-04 14:53:00,
2013-01-04 09:58:00,33.1,20.4,30.04,WNW,295,9.0,10.0,59,0.00,,OVC037,0.00,VWS V14.01,2013-01-04 14:58:00,
2013-01-04 10:03:00,33.2,20.0,30.04,WNW,284,5.0,13.0,58,0.00,,OVC037,0.00,VWS V14.01,2013-01-04 15:03:00,
2013-01-04 10:08:00,33.4,20.6,30.04,WNW,287,4.0,7.0,59,0.00,,OVC037,0.00,VWS V14.01,2013-01-04 15:08:00,
2013-01-04 10:13:00,33.4,20.6,30.04,West,281,5.0,8.0,59,0.00,,OVC037,0.00,VWS V14.01,2013-01-04 15:13:00,
2013-01-04 10:18:00,33.2,20.4,30.04,West,265,9.0,14.0,59,0.00,,OVC037,0.00,VWS V14.01,2013-01-04 15:18:00,
2013-01-04 10:23:00,33.4,20.6,30.04,WNW,301,6.0,8.0,59,0.00,,OVC037,0.00,VWS V14.01,2013-01-04 15:23:00,
2013-01-04 10:28:00,33.5,20.7,30.04,NW,304,9.0,12.0,59,0.00,,OVC037,0.00,VWS V14.01,2013-01-04 15:28:00,
2013-01-04 10:33:00,33.4,20.2,30.04,WNW,283,7.0,12.0,58,0.00,,OVC038,0.00,VWS V14.01,2013-01-04 15:33:00,
2013-01-04 10:38:00,33.4,20.2,30.03,WSW,243,2.0,11.0,58,0.00,,OVC038,0.00,VWS V14.01,2013-01-04 15:38:00,
2013-01-04 10:43:00,33.5,20.3,30.03,WNW,291,11.0,14.0,58,0.00,,OVC038,0.00,VWS V14.01,2013-01-04 15:43:00,
2013-01-04 10:48:00,33.5,20.3,30.03,West,264,11.0,11.0,58,0.00,,OVC038,0.00,VWS V14.01,2013-01-04 15:48:00,
2013-01-04 10:53:00,33.5,20.7,30.02,West,275,11.0,14.0,59,0.00,,OVC039,0.00,VWS V14.01,2013-01-04 15:53:00,
2013-01-04 10:58:00,33.7,20.9,30.02,WNW,293,7.0,15.0,59,0.00,,OVC039,0.00,VWS V14.01,2013-01-04 15:58:00,
2013-01-04 11:03:00,33.7,20.9,30.02,WNW,294,7.0,12.0,59,0.00,,OVC039,0.00,VWS V14.01,2013-01-04 16:03:00,
2013-01-04 11:08:00,33.5,20.7,30.02,WNW,292,8.0,11.0,59,0.00,,OVC039,0.00,VWS V14.01,2013-01-04 16:08:00,
2013-01-04 11:13:00,33.5,20.7,30.02,WSW,253,10.0,15.0,59,0.00,,OVC039,0.00,VWS V14.01,2013-01-04 16:13:00,
2013-01-04 11:18:00,33.5,20.7,30.02,WSW,254,8.0,12.0,59,0.00,,OVC039,0.00,VWS V14.01,2013-01-04 16:18:00,
2013-01-04 11:23:00,33.7,20.9,30.01,WNW,283,6.0,10.0,59,0.00,,OVC039,0.00,VWS V14.01,2013-01-04 16:23:00,
2013-01-04 11:28:00,33.7,20.9,30.01,WNW,295,5.0,10.0,59,0.00,,OVC039,0.00,VWS V14.01,2013-01-04 16:28:00,
2013-01-04 11:33:00,33.7,20.9,30.01,WSW,252,9.0,10.0,59,0.00,,OVC034,0.00,VWS V14.01,2013-01-04 16:33:00,
2013-01-04 11:38:00,33.7,20.9,30.00,WNW,283,6.0,20.0,59,0.00,,OVC034,0.00,VWS V14.01,2013-01-04 16:38:00,
2013-01-04 11:43:00,33.7,21.3,30.00,West,271,6.0,8.0,60,0.00,,OVC034,0.00,VWS V14.01,2013-01-04 16:43:00,
2013-01-04 11:48:00,34.0,21.2,30.00,WNW,290,5.0,10.0,59,0.00,,OVC034,0.00,VWS V14.01,2013-01-04 16:48:00,
2013-01-04 11:53:00,34.0,21.2,30.00,WNW,296,6.0,10.0,59,0.00,,OVC038,0.00,VWS V14.01,2013-01-04 16:53:00,
2013-01-04 11:58:00,34.0,21.6,30.00,West,276,9.0,10.0,60,0.00,,OVC038,0.00,VWS V14.01,2013-01-04 16:58:00,
2013-01-04 12:03:00,34.4,21.6,30.00,West,266,5.0,14.0,59,0.00,,OVC038,0.00,VWS V14.01,2013-01-04 17:03:00,
2013-01-04 12:08:00,34.3,21.1,29.99,West,270,10.0,21.0,58,0.00,,OVC038,0.00,VWS V14.01,2013-01-04 17:08:00,
2013-01-04 12:13:00,34.1,21.3,29.99,WSW,253,7.0,16.0,59,0.00,,OVC038,0.00,VWS V14.01,2013-01-04 17:13:00,
2013-01-04 12:18:00,34.1,21.3,29.99,NW,304,8.0,11.0,59,0.00,,OVC038,0.00,VWS V14.01,2013-01-04 17:18:00,
2013-01-04 12:23:00,34.1,21.3,29.98,WSW,248,9.0,13.0,59,0.00,,OVC038,0.00,VWS V14.01,2013-01-04 17:23:00,
2013-01-04 12:28:00,34.0,21.2,29.98,West,274,8.0,11.0,59,0.00,,OVC038,0.00,VWS V14.01,2013-01-04 17:28:00,
2013-01-04 12:33:00,34.0,21.6,29.98,WNW,284,7.0,13.0,60,0.00,,OVC038,0.00,VWS V14.01,2013-01-04 17:33:00,
2013-01-04 12:38:00,34.1,21.7,29.98,WNW,290,3.0,10.0,60,0.00,,OVC032,0.00,VWS V14.01,2013-01-04 17:38:00,
2013-01-04 12:43:00,34.3,21.5,29.98,WNW,290,6.0,14.0,59,0.00,,OVC032,0.00,VWS V14.01,2013-01-04 17:43:00,
2013-01-04 12:48:00,34.4,21.6,29.98,West,260,8.0,12.0,59,0.00,,OVC032,0.00,VWS V14.01,2013-01-04 17:48:00,
2013-01-04 12:53:00,34.4,21.2,29.96,West,281,7.0,14.0,58,0.00,,OVC032,0.00,VWS V14.01,2013-01-04 17:53:00,
2013-01-04 12:58:00,34.3,21.1,29.96,West,274,13.0,20.0,58,0.00,,OVC032,0.00,VWS V14.01,2013-01-04 17:58:00,
2013-01-04 13:03:00,34.4,21.2,29.96,West,266,4.0,16.0,58,0.00,,OVC032,0.00,VWS V14.01,2013-01-04 18:03:00,
2013-01-04 13:08:00,34.6,21.8,29.96,West,277,5.0,11.0,59,0.00,,OVC032,0.00,VWS V14.01,2013-01-04 18:08:00,
2013-01-04 13:13:00,34.7,21.9,29.96,West,263,6.0,7.0,59,0.00,,OVC032,0.00,VWS V14.01,2013-01-04 18:13:00,
2013-01-04 13:18:00,34.9,21.6,29.96,WSW,240,13.0,19.0,58,0.00,,OVC032,0.00,VWS V14.01,2013-01-04 18:18:00,
2013-01-04 13:23:00,34.7,21.5,29.96,WSW,250,11.0,18.0,58,0.00,,OVC032,0.00,VWS V14.01,2013-01-04 18:23:00,
2013-01-04 13:28:00,35.2,22.3,29.96,WSW,252,15.0,15.0,59,0.00,,OVC032,0.00,VWS V14.01,2013-01-04 18:28:00,
2013-01-04 13:33:00,35.5,22.2,29.96,West,262,14.0,16.0,58,0.00,,BKN032,0.00,VWS V14.01,2013-01-04 18:33:00,
2013-01-04 13:38:00,34.9,21.2,29.95,West,272,9.0,15.0,57,0.00,,BKN032,0.00,VWS V14.01,2013-01-04 18:38:00,
2013-01-04 13:43:00,34.7,21.5,29.95,WSW,249,8.0,14.0,58,0.00,,BKN032,0.00,VWS V14.01,2013-01-04 18:43:00,
2013-01-04 13:48:00,35.5,21.8,29.95,West,271,11.0,12.0,57,0.00,,BKN032,0.00,VWS V14.01,2013-01-04 18:48:00,
2013-01-04 13:53:00,36.0,22.3,29.94,WNW,291,10.0,10.0,57,0.00,,BKN032,0.00,VWS V14.01,2013-01-04 18:53:00,
2013-01-04 13:58:00,36.5,21.9,29.94,NNW,337,9.0,13.0,55,0.00,,BKN032,0.00,VWS V14.01,2013-01-04 18:58:00,
2013-01-04 14:03:00,36.5,22.3,29.94,WNW,286,10.0,14.0,56,0.00,,BKN032,0.00,VWS V14.01,2013-01-04 19:03:00,
2013-01-04 14:08:00,36.5,21.9,29.94,NW,307,2.0,11.0,55,0.00,,BKN032,0.00,VWS V14.01,2013-01-04 19:08:00,
2013-01-04 14:13:00,36.5,21.9,29.94,NW,307,9.0,10.0,55,0.00,,BKN032,0.00,VWS V14.01,2013-01-04 19:13:00,
2013-01-04 14:18:00,36.5,22.3,29.94,West,264,5.0,10.0,56,0.00,,BKN032,0.00,VWS V14.01,2013-01-04 19:18:00,
2013-01-04 14:23:00,36.8,22.2,29.93,WNW,296,7.0,10.0,55,0.00,,BKN032,0.00,VWS V14.01,2013-01-04 19:23:00,
2013-01-04 14:28:00,36.5,21.9,29.93,WNW,286,8.0,10.0,55,0.00,,BKN032,0.00,VWS V14.01,2013-01-04 19:28:00,
2013-01-04 14:33:00,35.9,21.8,29.93,WNW,292,3.0,14.0,56,0.00,,CLR,0.00,VWS V14.01,2013-01-04 19:33:00,
2013-01-04 14:38:00,36.3,21.7,29.93,WNW,290,6.0,11.0,55,0.00,,CLR,0.00,VWS V14.01,2013-01-04 19:38:00,
2013-01-04 14:43:00,36.5,22.3,29.93,West,259,8.0,10.0,56,0.00,,CLR,0.00,VWS V14.01,2013-01-04 19:43:00,
2013-01-04 14:48:00,36.5,21.9,29.93,West,277,12.0,16.0,55,0.00,,CLR,0.00,VWS V14.01,2013-01-04 19:48:00,
2013-01-04 14:53:00,36.6,21.5,29.93,West,262,12.0,15.0,54,0.00,,CLR,0.00,VWS V14.01,2013-01-04 19:53:00,
2013-01-04 14:58:00,36.8,21.7,29.93,West,281,5.0,12.0,54,0.00,,CLR,0.00,VWS V14.01,2013-01-04 19:58:00,
2013-01-04 15:03:00,36.8,21.7,29.93,West,274,7.0,12.0,54,0.00,,CLR,0.00,VWS V14.01,2013-01-04 20:03:00,
2013-01-04 15:08:00,36.9,22.3,29.93,West,265,10.0,10.0,55,0.00,,CLR,0.00,VWS V14.01,2013-01-04 20:08:00,
2013-01-04 15:13:00,37.0,21.9,29.93,West,260,7.0,13.0,54,0.00,,CLR,0.00,VWS V14.01,2013-01-04 20:13:00,
2013-01-04 15:18:00,36.9,21.8,29.93,WNW,283,6.0,10.0,54,0.00,,CLR,0.00,VWS V14.01,2013-01-04 20:18:00,
2013-01-04 15:23:00,37.2,22.1,29.92,West,267,5.0,8.0,54,0.00,,CLR,0.00,VWS V14.01,2013-01-04 20:23:00,
2013-01-04 15:28:00,37.2,22.1,29.92,WSW,251,4.0,6.0,54,0.00,,CLR,0.00,VWS V14.01,2013-01-04 20:28:00,
2013-01-04 15:33:00,37.5,21.9,29.92,SSW,207,6.0,13.0,53,0.00,,CLR,0.00,VWS V14.01,2013-01-04 20:33:00,
2013-01-04 15:38:00,37.2,21.7,29.93,WSW,255,7.0,13.0,53,0.00,,CLR,0.00,VWS V14.01,2013-01-04 20:38:00,
2013-01-04 15:43:00,37.0,21.9,29.93,WSW,256,6.0,11.0,54,0.00,,CLR,0.00,VWS V14.01,2013-01-04 20:43:00,
2013-01-04 15:48:00,36.9,21.4,29.93,WSW,255,5.0,8.0,53,0.00,,CLR,0.00,VWS V14.01,2013-01-04 20:48:00,
2013-01-04 15:53:00,36.8,21.7,29.93,WSW,244,5.0,8.0,54,0.00,,CLR,0.00,VWS V14.01,2013-01-04 20:53:00,
2013-01-04 15:58:00,36.8,21.3,29.93,WSW,252,7.0,12.0,53,0.00,,CLR,0.00,VWS V14.01,2013-01-04 20:58:00,
2013-01-04 16:03:00,36.8,21.7,29.93,SW,234,9.0,9.0,54,0.00,,CLR,0.00,VWS V14.01,2013-01-04 21:03:00,
2013-01-04 16:08:00,36.5,21.5,29.93,West,278,7.0,12.0,54,0.00,,CLR,0.00,VWS V14.01,2013-01-04 21:08:00,
2013-01-04 16:13:00,36.3,21.7,29.93,WSW,248,8.0,13.0,55,0.00,,CLR,0.00,VWS V14.01,2013-01-04 21:13:00,
2013-01-04 16:18:00,36.3,21.7,29.93,WSW,243,9.0,9.0,55,0.00,,CLR,0.00,VWS V14.01,2013-01-04 21:18:00,
2013-01-04 16:23:00,36.0,21.4,29.92,WSW,243,7.0,10.0,55,0.00,,CLR,0.00,VWS V14.01,2013-01-04 21:23:00,
2013-01-04 16:28:00,36.0,21.4,29.92,West,262,9.0,10.0,55,0.00,,CLR,0.00,VWS V14.01,2013-01-04 21:28:00,
2013-01-04 16:33:00,35.9,21.3,29.92,West,259,5.0,10.0,55,0.00,,CLR,0.00,VWS V14.01,2013-01-04 21:33:00,
2013-01-04 16:38:00,35.8,21.6,29.92,WSW,242,10.0,10.0,56,0.00,,CLR,0.00,VWS V14.01,2013-01-04 21:38:00,
2013-01-04 16:43:00,35.5,21.8,29.92,West,262,4.0,7.0,57,0.00,,CLR,0.00,VWS V14.01,2013-01-04 21:43:00,
2013-01-04 16:48:00,35.3,21.6,29.92,West,274,5.0,7.0,57,0.00,,CLR,0.00,VWS V14.01,2013-01-04 21:48:00,
2013-01-04 16:53:00,35.2,21.5,29.92,West,264,2.0,9.0,57,0.00,,CLR,0.00,VWS V14.01,2013-01-04 21:53:00,
2013-01-04 16:58:00,35.2,21.5,29.92,WNW,292,6.0,11.0,57,0.00,,CLR,0.00,VWS V14.01,2013-01-04 21:58:00,
2013-01-04 17:03:00,35.3,21.6,29.92,WNW,298,10.0,15.0,57,0.00,,CLR,0.00,VWS V14.01,2013-01-04 22:03:00,
2013-01-04 17:08:00,35.3,21.2,29.92,WSW,251,6.0,10.0,56,0.00,,CLR,0.00,VWS V14.01,2013-01-04 22:08:00,
2013-01-04 17:13:00,35.3,21.2,29.92,WSW,243,2.0,7.0,56,0.00,,CLR,0.00,VWS V14.01,2013-01-04 22:13:00,
2013-01-04 17:18:00,35.3,21.2,29.92,West,259,4.0,12.0,56,0.00,,CLR,0.00,VWS V14.01,2013-01-04 22:18:00,
2013-01-04 17:23:00,35.3,21.2,29.92,WNW,296,5.0,12.0,56,0.00,,CLR,0.00,VWS V14.01,2013-01-04 22:23:00,
2013-01-04 17:28:00,35.3,21.2,29.92,WSW,249,7.0,9.0,56,0.00,,CLR,0.00,VWS V14.01,2013-01-04 22:28:00,
2013-01-04 17:33:00,35.2,21.1,29.92,West,264,5.0,11.0,56,0.00,,CLR,0.00,VWS V14.01,2013-01-04 22:33:00,
2013-01-04 17:38:00,35.2,21.1,29.92,West,260,10.0,10.0,56,0.00,,CLR,0.00,VWS V14.01,2013-01-04 22:38:00,
2013-01-04 17:43:00,35.3,21.2,29.92,West,266,6.0,11.0,56,0.00,,CLR,0.00,VWS V14.01,2013-01-04 22:43:00,
2013-01-04 17:48:00,35.2,21.1,29.92,WSW,258,10.0,10.0,56,0.00,,CLR,0.00,VWS V14.01,2013-01-04 22:48:00,
2013-01-04 17:53:00,35.2,21.1,29.93,West,259,8.0,8.0,56,0.00,,CLR,0.00,VWS V14.01,2013-01-04 22:53:00,
2013-01-04 17:58:00,35.0,21.3,29.93,WNW,285,2.0,6.0,57,0.00,,CLR,0.00,VWS V14.01,2013-01-04 22:58:00,
2013-01-04 18:03:00,34.9,21.2,29.93,West,268,6.0,10.0,57,0.00,,CLR,0.00,VWS V14.01,2013-01-04 23:03:00,
2013-01-04 18:08:00,34.9,21.2,29.94,West,270,5.0,8.0,57,0.00,,CLR,0.00,VWS V14.01,2013-01-04 23:08:00,
2013-01-04 18:13:00,34.7,21.0,29.94,WSW,238,2.0,8.0,57,0.00,,CLR,0.00,VWS V14.01,2013-01-04 23:13:00,
2013-01-04 18:18:00,34.6,21.0,29.94,WSW,252,0.0,7.0,57,0.00,,CLR,0.00,VWS V14.01,2013-01-04 23:18:00,
2013-01-04 18:23:00,34.1,20.9,29.94,WSW,254,7.0,7.0,58,0.00,,CLR,0.00,VWS V14.01,2013-01-04 23:23:00,
2013-01-04 18:28:00,34.3,21.1,29.94,West,271,5.0,6.0,58,0.00,,CLR,0.00,VWS V14.01,2013-01-04 23:28:00,
2013-01-04 18:33:00,34.3,21.1,29.94,West,269,7.0,7.0,58,0.00,,CLR,0.00,VWS V14.01,2013-01-04 23:33:00,
2013-01-04 18:38:00,34.4,21.2,29.94,WSW,256,6.0,6.0,58,0.00,,CLR,0.00,VWS V14.01,2013-01-04 23:38:00,
2013-01-04 18:43:00,34.3,21.1,29.94,WNW,287,4.0,9.0,58,0.00,,CLR,0.00,VWS V14.01,2013-01-04 23:43:00,
2013-01-04 18:48:00,34.3,21.1,29.94,West,281,1.0,6.0,58,0.00,,CLR,0.00,VWS V14.01,2013-01-04 23:48:00,
2013-01-04 18:53:00,34.1,20.9,29.94,WSW,251,6.0,6.0,58,0.00,,CLR,0.00,VWS V14.01,2013-01-04 23:53:00,
2013-01-04 18:58:00,34.0,21.2,29.94,West,271,2.0,5.0,59,0.00,,CLR,0.00,VWS V14.01,2013-01-04 23:58:00,
2013-01-04 19:03:00,33.8,21.0,29.94,WNW,287,0.0,4.0,59,0.00,,CLR,0.00,VWS V14.01,2013-01-05 00:03:00,
2013-01-04 19:08:00,33.5,20.7,29.94,West,264,5.0,6.0,59,0.00,,CLR,0.00,VWS V14.01,2013-01-05 00:08:00,
2013-01-04 19:13:00,33.4,20.6,29.94,West,264,4.0,6.0,59,0.00,,CLR,0.00,VWS V14.01,2013-01-05 00:13:00,
2013-01-04 19:18:00,33.2,20.8,29.94,West,259,1.0,4.0,60,0.00,,CLR,0.00,VWS V14.01,2013-01-05 00:18:00,
2013-01-04 19:23:00,33.2,20.8,29.94,WSW,257,2.0,4.0,60,0.00,,CLR,0.00,VWS V14.01,2013-01-05 00:23:00,
2013-01-04 19:28:00,33.1,20.7,29.94,West,278,1.0,5.0,60,0.00,,CLR,0.00,VWS V14.01,2013-01-05 00:28:00,
2013-01-04 19:33:00,33.1,20.7,29.94,West,268,1.0,4.0,60,0.00,,CLR,0.00,VWS V14.01,2013-01-05 00:33:00,
2013-01-04 19:38:00,33.1,20.7,29.94,West,266,4.0,7.0,60,0.00,,CLR,0.00,VWS V14.01,2013-01-05 00:38:00,
2013-01-04 19:43:00,33.1,20.7,29.94,WSW,254,4.0,7.0,60,0.00,,CLR,0.00,VWS V14.01,2013-01-05 00:43:00,
2013-01-04 19:48:00,33.2,20.8,29.94,West,270,4.0,6.0,60,0.00,,CLR,0.00,VWS V14.01,2013-01-05 00:48:00,
2013-01-04 19:53:00,33.1,21.1,29.94,WNW,295,1.0,5.0,61,0.00,,CLR,0.00,VWS V14.01,2013-01-05 00:53:00,
2013-01-04 19:58:00,32.9,20.9,29.94,WNW,293,1.0,5.0,61,0.00,,CLR,0.00,VWS V14.01,2013-01-05 00:58:00,
2013-01-04 20:03:00,32.9,20.9,29.94,West,262,5.0,6.0,61,0.00,,CLR,0.00,VWS V14.01,2013-01-05 01:03:00,
2013-01-04 20:08:00,33.1,21.1,29.94,West,271,4.0,6.0,61,0.00,,CLR,0.00,VWS V14.01,2013-01-05 01:08:00,
2013-01-04 20:13:00,33.1,20.7,29.94,West,265,4.0,7.0,60,0.00,,CLR,0.00,VWS V14.01,2013-01-05 01:13:00,
2013-01-04 20:18:00,33.1,20.7,29.94,West,278,1.0,7.0,60,0.00,,CLR,0.00,VWS V14.01,2013-01-05 01:18:00,
2013-01-04 20:23:00,33.1,20.7,29.94,NW,304,1.0,7.0,60,0.00,,CLR,0.00,VWS V14.01,2013-01-05 01:23:00,
2013-01-04 20:28:00,32.9,20.5,29.94,West,259,5.0,5.0,60,0.00,,CLR,0.00,VWS V14.01,2013-01-05 01:28:00,
2013-01-04 20:33:00,32.8,20.9,29.94,West,275,2.0,5.0,61,0.00,,CLR,0.00,VWS V14.01,2013-01-05 01:33:00,
2013-01-04 20:38:00,32.7,20.8,29.94,WSW,245,6.0,6.0,61,0.00,,CLR,0.00,VWS V14.01,2013-01-05 01:38:00,
2013-01-04 20:43:00,32.7,20.8,29.94,SW,234,1.0,5.0,61,0.00,,CLR,0.00,VWS V14.01,2013-01-05 01:43:00,
2013-01-04 20:48:00,32.7,20.4,29.94,WNW,290,4.0,8.0,60,0.00,,CLR,0.00,VWS V14.01,2013-01-05 01:48:00,
2013-01-04 20:53:00,32.7,20.4,29.94,West,259,5.0,7.0,60,0.00,,CLR,0.00,VWS V14.01,2013-01-05 01:53:00,
2013-01-04 20:58:00,32.8,20.5,29.94,WSW,245,2.0,5.0,60,0.00,,CLR,0.00,VWS V14.01,2013-01-05 01:58:00,
2013-01-04 21:03:00,32.9,20.2,29.94,West,274,4.0,7.0,59,0.00,,CLR,0.00,VWS V14.01,2013-01-05 02:03:00,
2013-01-04 21:08:00,32.8,20.1,29.94,West,271,4.0,6.0,59,0.00,,CLR,0.00,VWS V14.01,2013-01-05 02:08:00,
2013-01-04 21:13:00,32.8,20.1,29.94,West,281,0.0,6.0,59,0.00,,CLR,0.00,VWS V14.01,2013-01-05 02:13:00,
2013-01-04 21:19:00,32.7,20.4,29.94,WNW,295,1.0,6.0,60,0.00,,CLR,0.00,VWS V14.01,2013-01-05 02:19:00,
2013-01-04 21:24:00,32.7,20.4,29.95,West,264,0.0,6.0,60,0.00,,CLR,0.00,VWS V14.01,2013-01-05 02:24:00,
2013-01-04 21:29:00,32.5,20.2,29.95,West,271,0.0,4.0,60,0.00,,CLR,0.00,VWS V14.01,2013-01-05 02:29:00,
2013-01-04 21:34:00,32.5,20.2,29.95,WNW,284,0.0,5.0,60,0.00,,CLR,0.00,VWS V14.01,2013-01-05 02:34:00,
2013-01-04 21:39:00,32.4,20.1,29.96,WSW,257,0.0,5.0,60,0.00,,CLR,0.00,VWS V14.01,2013-01-05 02:39:00,
2013-01-04 21:44:00,32.2,19.9,29.96,WSW,257,5.0,5.0,60,0.00,,CLR,0.00,VWS V14.01,2013-01-05 02:44:00,
2013-01-04 21:49:00,32.2,19.9,29.96,West,271,0.0,7.0,60,0.00,,CLR,0.00,VWS V14.01,2013-01-05 02:49:00,
2013-01-04 21:54:00,32.1,19.8,29.96,West,271,0.0,2.0,60,0.00,,CLR,0.00,VWS V14.01,2013-01-05 02:54:00,
2013-01-04 21:59:00,31.8,19.9,29.96,WSW,254,1.0,5.0,61,0.00,,CLR,0.00,VWS V14.01,2013-01-05 02:59:00,
2013-01-04 22:04:00,31.6,19.7,29.96,West,259,1.0,3.0,61,0.00,,CLR,0.00,VWS V14.01,2013-01-05 03:04:00,
2013-01-04 22:09:00,31.6,19.7,29.96,West,259,0.0,2.0,61,0.00,,CLR,0.00,VWS V14.01,2013-01-05 03:09:00,
2013-01-04 22:14:00,31.3,19.8,29.96,WSW,246,5.0,5.0,62,0.00,,CLR,0.00,VWS V14.01,2013-01-05 03:14:00,
2013-01-04 22:19:00,31.5,19.6,29.96,WSW,246,1.0,5.0,61,0.00,,CLR,0.00,VWS V14.01,2013-01-05 03:19:00,
2013-01-04 22:24:00,31.5,19.6,29.96,West,264,0.0,4.0,61,0.00,,CLR,0.00,VWS V14.01,2013-01-05 03:24:00,
2013-01-04 22:29:00,31.6,19.3,29.96,WSW,246,0.0,4.0,60,0.00,,CLR,0.00,VWS V14.01,2013-01-05 03:29:00,
2013-01-04 22:34:00,31.6,19.7,29.96,WSW,246,0.0,3.0,61,0.00,,CLR,0.00,VWS V14.01,2013-01-05 03:34:00,
2013-01-04 22:39:00,31.5,19.2,29.97,SSW,205,0.0,4.0,60,0.00,,CLR,0.00,VWS V14.01,2013-01-05 03:39:00,
2013-01-04 22:44:00,31.3,19.4,29.97,SSW,207,0.0,1.0,61,0.00,,CLR,0.00,VWS V14.01,2013-01-05 03:44:00,
2013-01-04 22:49:00,31.0,19.1,29.97,SSW,208,2.0,2.0,61,0.00,,CLR,0.00,VWS V14.01,2013-01-05 03:49:00,
2013-01-04 22:54:00,30.6,19.1,29.97,SSW,213,1.0,4.0,62,0.00,,CLR,0.00,VWS V14.01,2013-01-05 03:54:00,
2013-01-04 22:59:00,30.3,19.2,29.97,WSW,254,0.0,4.0,63,0.00,,CLR,0.00,VWS V14.01,2013-01-05 03:59:00,
2013-01-04 23:04:00,30.1,19.0,29.97,WSW,258,1.0,4.0,63,0.00,,CLR,0.00,VWS V14.01,2013-01-05 04:04:00,
2013-01-04 23:09:00,30.4,19.3,29.97,WSW,252,2.0,2.0,63,0.00,,CLR,0.00,VWS V14.01,2013-01-05 04:09:00,
2013-01-04 23:14:00,30.4,19.3,29.97,WSW,248,0.0,4.0,63,0.00,,CLR,0.00,VWS V14.01,2013-01-05 04:14:00,
2013-01-04 23:19:00,30.4,19.3,29.97,SW,231,1.0,2.0,63,0.00,,CLR,0.00,VWS V14.01,2013-01-05 04:19:00,
2013-01-04 23:24:00,30.4,19.3,29.97,WSW,243,0.0,4.0,63,0.00,,CLR,0.00,VWS V14.01,2013-01-05 04:24:00,
2013-01-04 23:29:00,30.4,19.3,29.97,WSW,255,1.0,4.0,63,0.00,,CLR,0.00,VWS V14.01,2013-01-05 04:29:00,
2013-01-04 23:34:00,30.4,19.3,29.97,West,260,1.0,4.0,63,0.00,,CLR,0.00,VWS V14.01,2013-01-05 04:34:00,
2013-01-04 23:39:00,30.3,19.2,29.97,West,260,0.0,1.0,63,0.00,,CLR,0.00,VWS V14.01,2013-01-05 04:39:00,
2013-01-04 23:44:00,30.0,19.0,29.97,WSW,245,0.0,3.0,63,0.00,,CLR,0.00,VWS V14.01,2013-01-05 04:44:00,
2013-01-04 23:49:00,30.0,19.3,29.97,WSW,248,2.0,5.0,64,0.00,,CLR,0.00,VWS V14.01,2013-01-05 04:49:00,
2013-01-04 23:54:00,30.1,19.0,29.97,West,263,0.0,4.0,63,0.00,,CLR,0.00,VWS V14.01,2013-01-05 04:54:00,
2013-01-04 23:59:00,30.1,19.0,29.97,WNW,288,1.0,5.0,63,0.00,,CLR,0.00,VWS V14.01,2013-01-05 04:59:00,